createdAt,value
2019-06-07T00:00:59.207Z,100613.59
2019-06-07T00:03:40.758Z,100616.75
2019-06-07T00:06:23.768Z,100619.62
2019-06-07T00:08:55.592Z,100616.66
2019-06-07T00:11:34.186Z,100615.33
2019-06-07T00:14:37.960Z,100617.52
2019-06-07T00:31:11.443Z,100596.73
2019-06-07T00:46:41.675Z,100606.04
2019-06-07T00:50:05.632Z,100591.22
2019-06-07T00:55:27.560Z,100593.94
2019-06-07T00:58:00.563Z,100593.45
2019-06-07T01:00:35.802Z,100595.45
2019-06-07T01:03:10.281Z,100599.55
2019-06-07T01:05:45.914Z,100597.45
2019-06-07T01:08:22.723Z,100603.63
2019-06-07T01:10:56.264Z,100599.62
2019-06-07T01:13:31.892Z,100594.90
2019-06-07T01:16:08.123Z,100591.66
2019-06-07T01:18:46.617Z,100600.13
2019-06-07T01:21:21.733Z,100598.90
2019-06-07T01:24:11.468Z,100596.95
2019-06-07T01:26:34.740Z,100594.88
2019-06-07T01:29:09.915Z,100599.73
2019-06-07T01:31:44.342Z,100604.22
2019-06-07T01:34:21.233Z,100614.97
2019-06-07T01:36:57.140Z,100615.45
2019-06-07T01:39:32.123Z,100620.31
2019-06-07T01:42:08.205Z,100629.95
2019-06-07T01:44:43.920Z,100633.14
2019-06-07T01:47:43.508Z,100639.70
2019-06-07T01:51:05.539Z,100648.45
2019-06-07T01:53:41.866Z,100640.72
2019-06-07T01:56:18.363Z,100630.55
2019-06-07T01:58:52.777Z,100638.22
2019-06-07T02:01:29.698Z,100629.44
2019-06-07T02:04:01.987Z,100645.27
2019-06-07T02:06:36.011Z,100648.63
2019-06-07T02:09:10.087Z,100645.59
2019-06-07T02:11:43.913Z,100661.98
2019-06-07T02:14:27.356Z,100660.56
2019-06-07T02:16:59.929Z,100668.84
2019-06-07T02:19:34.708Z,100678.55
2019-06-07T02:22:09.114Z,100675.51
2019-06-07T02:24:44.674Z,100672.70
2019-06-07T02:27:18.448Z,100667.36
2019-06-07T02:29:52.226Z,100660.31
2019-06-07T02:32:29.828Z,100666.51
2019-06-07T02:35:03.024Z,100666.33
2019-06-07T02:37:37.651Z,100662.77
2019-06-07T02:40:14.721Z,100660.21
2019-06-07T02:42:50.159Z,100662.47
2019-06-07T02:45:26.011Z,100668.99
2019-06-07T02:48:01.903Z,100677.52
2019-06-07T02:51:27.332Z,100672.55
2019-06-07T02:54:01.203Z,100677.55
2019-06-07T02:56:54.106Z,100684.11
2019-06-07T02:59:12.789Z,100684.71
2019-06-07T03:01:49.763Z,100685.97
2019-06-07T03:04:27.206Z,100683.03
2019-06-07T03:07:04.587Z,100694.20
2019-06-07T03:09:39.958Z,100696.20
2019-06-07T03:12:29.618Z,100704.13
2019-06-07T03:22:17.154Z,100712.41
2019-06-07T03:25:28.203Z,100721.85
2019-06-07T03:28:35.572Z,100728.41
2019-06-07T03:31:11.225Z,100732.16
2019-06-07T03:33:47.958Z,100738.31
2019-06-07T03:36:29.689Z,100740.98
2019-06-07T03:39:42.341Z,100745.84
2019-06-07T03:45:54.766Z,100743.84
2019-06-07T03:53:56.396Z,100748.22
2019-06-07T03:57:06.824Z,100735.37
2019-06-07T04:01:05.574Z,100737.19
2019-06-07T04:03:50.650Z,100735.19
2019-06-07T04:06:16.761Z,100740.41
2019-06-07T04:08:50.112Z,100741.92
2019-06-07T04:11:23.794Z,100737.33
2019-06-07T04:13:58.088Z,100743.47
2019-06-07T04:16:34.838Z,100741.01
2019-06-07T04:19:07.675Z,100741.09
2019-06-07T04:21:42.993Z,100747.79
2019-06-07T04:24:16.459Z,100746.66
2019-06-07T04:26:50.197Z,100747.36
2019-06-07T04:29:33.997Z,100750.69
2019-06-07T04:31:58.660Z,100740.11
2019-06-07T04:34:34.974Z,100746.88
2019-06-07T04:37:13.269Z,100746.38
2019-06-07T04:40:16.754Z,100749.23
2019-06-07T04:49:22.167Z,100763.16
2019-06-07T04:51:57.452Z,100757.34
2019-06-07T04:54:32.981Z,100755.81
2019-06-07T04:57:07.204Z,100759.73
2019-06-07T05:00:10.943Z,100761.55
2019-06-07T05:02:18.433Z,100760.49
2019-06-07T05:05:29.299Z,100763.38
2019-06-07T05:08:07.429Z,100762.20
2019-06-07T05:10:43.440Z,100763.19
2019-06-07T05:13:14.876Z,100754.04
2019-06-07T05:15:48.466Z,100758.06
2019-06-07T05:18:21.987Z,100769.53
2019-06-07T05:20:55.684Z,100773.55
2019-06-07T05:24:04.891Z,100772.56
2019-06-07T05:26:04.288Z,100772.62
2019-06-07T05:28:42.346Z,100772.62
2019-06-07T05:31:13.468Z,100768.03
2019-06-07T05:33:46.938Z,100771.55
2019-06-07T05:36:20.853Z,100772.62
2019-06-07T05:38:54.209Z,100769.49
2019-06-07T05:41:27.639Z,100779.72
2019-06-07T05:44:12.243Z,100779.74
2019-06-07T05:46:38.618Z,100777.81
2019-06-07T05:49:12.411Z,100787.34
2019-06-07T05:51:45.892Z,100786.51
2019-06-07T05:54:22.675Z,100791.85
2019-06-07T05:56:57.437Z,100797.25
2019-06-07T05:59:30.621Z,100795.45
2019-06-07T06:02:21.503Z,100803.77
2019-06-07T06:04:44.906Z,100803.00
2019-06-07T06:07:14.627Z,100802.52
2019-06-07T06:09:48.097Z,100805.95
2019-06-07T06:12:34.567Z,100803.48
2019-06-07T06:14:56.677Z,100806.34
2019-06-07T06:17:30.224Z,100813.11
2019-06-07T06:20:03.628Z,100820.08
2019-06-07T06:22:40.093Z,100824.88
2019-06-07T06:28:10.802Z,100842.91
2019-06-07T06:30:22.988Z,100848.92
2019-06-07T06:32:58.544Z,100838.88
2019-06-07T06:35:32.761Z,100846.07
2019-06-07T06:38:06.078Z,100845.66
2019-06-07T06:40:43.314Z,100850.11
2019-06-07T06:43:14.352Z,100856.23
2019-06-07T06:45:50.673Z,100854.90
2019-06-07T06:48:23.948Z,100863.87
2019-06-07T06:50:57.264Z,100864.66
2019-06-07T06:53:30.634Z,100866.66
2019-06-07T06:56:03.879Z,100875.72
2019-06-07T06:59:25.185Z,100875.19
2019-06-07T07:01:12.581Z,100879.16
2019-06-07T07:04:09.186Z,100871.03
2019-06-07T07:06:26.236Z,100874.41
2019-06-07T07:09:00.295Z,100883.63
2019-06-07T07:11:34.052Z,100880.36
2019-06-07T07:14:07.814Z,100885.97
2019-06-07T07:16:42.244Z,100891.21
2019-06-07T07:19:16.749Z,100889.82
2019-06-07T07:21:53.104Z,100890.58
2019-06-07T07:24:26.357Z,100893.25
2019-06-07T07:27:00.022Z,100901.77
2019-06-07T07:29:33.768Z,100908.47
2019-06-07T07:32:07.588Z,100910.56
2019-06-07T07:34:41.342Z,100912.91
2019-06-07T07:37:15.038Z,100915.96
2019-06-07T07:39:52.975Z,100922.31
2019-06-07T07:42:24.258Z,100923.09
2019-06-07T07:44:57.929Z,100919.20
2019-06-07T07:47:31.614Z,100923.22
2019-06-07T07:50:05.400Z,100910.86
2019-06-07T07:52:39.377Z,100906.93
2019-06-07T07:55:13.115Z,100907.41
2019-06-07T07:57:49.463Z,100914.95
2019-06-07T08:00:50.189Z,100917.56
2019-06-07T08:03:04.149Z,100908.70
2019-06-07T08:05:42.857Z,100908.56
2019-06-07T08:08:11.203Z,100886.19
2019-06-07T08:10:50.390Z,100915.33
2019-06-07T08:13:26.386Z,100910.40
2019-06-07T08:16:05.063Z,100909.64
2019-06-07T08:18:35.548Z,100910.07
2019-06-07T08:21:24.789Z,100907.82
2019-06-07T08:23:44.592Z,100902.27
2019-06-07T08:26:18.412Z,100902.76
2019-06-07T08:28:55.873Z,100905.03
2019-06-07T08:31:27.552Z,100909.36
2019-06-07T08:34:01.338Z,100906.43
2019-06-07T08:36:42.041Z,100905.03
2019-06-07T08:39:10.884Z,100907.55
2019-06-07T08:41:54.022Z,100897.67
2019-06-07T08:44:23.819Z,100906.97
2019-06-07T08:47:11.597Z,100901.42
2019-06-07T08:49:28.460Z,100909.67
2019-06-07T08:52:09.851Z,100912.88
2019-06-07T08:54:36.448Z,100923.49
2019-06-07T08:57:20.526Z,100916.61
2019-06-07T08:59:44.938Z,100911.59
2019-06-07T09:02:23.766Z,100914.55
2019-06-07T09:04:56.423Z,100922.14
2019-06-07T09:07:27.794Z,100924.13
2019-06-07T09:10:09.516Z,100920.36
2019-06-07T09:12:36.905Z,100925.54
2019-06-07T09:15:21.331Z,100929.70
2019-06-07T09:18:30.530Z,100924.92
2019-06-07T09:20:36.315Z,100928.20
2019-06-07T09:23:06.180Z,100921.70
2019-06-07T09:25:52.414Z,100921.05
2019-06-07T09:28:18.789Z,100913.31
2019-06-07T09:30:46.997Z,100916.00
2019-06-07T09:33:20.199Z,100918.63
2019-06-07T09:35:54.028Z,100914.53
2019-06-07T09:38:27.261Z,100919.22
2019-06-07T09:41:08.097Z,100915.83
2019-06-07T09:44:21.453Z,100915.83
2019-06-07T09:46:41.946Z,100920.30
2019-06-07T09:49:28.997Z,100916.67
2019-06-07T09:51:51.507Z,100916.67
2019-06-07T09:55:02.937Z,100920.49
2019-06-07T09:57:02.634Z,100920.49
2019-06-07T09:59:34.871Z,100928.42
2019-06-07T10:02:13.203Z,100929.39
2019-06-07T10:04:43.239Z,100933.83
2019-06-07T10:07:30.583Z,100935.42
2019-06-07T10:12:26.551Z,100937.48
2019-06-07T10:15:00.649Z,100942.91
2019-06-07T10:17:36.721Z,100944.45
2019-06-07T10:20:10.842Z,100951.69
2019-06-07T10:22:44.146Z,100949.09
2019-06-07T10:25:17.596Z,100945.08
2019-06-07T10:27:50.858Z,100941.50
2019-06-07T10:30:24.441Z,100939.75
2019-06-07T10:32:57.873Z,100942.45
2019-06-07T10:35:31.352Z,100944.69
2019-06-07T10:38:04.807Z,100942.84
2019-06-07T10:40:38.201Z,100942.72
2019-06-07T10:43:14.430Z,100933.41
2019-06-07T10:45:46.553Z,100939.48
2019-06-07T10:48:19.955Z,100933.45
2019-06-07T10:50:53.292Z,100941.20
2019-06-07T10:53:26.631Z,100937.11
2019-06-07T10:55:59.770Z,100934.63
2019-06-07T10:58:33.034Z,100936.39
2019-06-07T11:01:07.326Z,100933.31
2019-06-07T11:03:40.778Z,100927.66
2019-06-07T11:06:16.693Z,100928.29
2019-06-07T11:08:50.445Z,100921.80
2019-06-07T11:11:23.794Z,100917.88
2019-06-07T11:13:57.181Z,100921.18
2019-06-07T11:16:32.155Z,100918.26
2019-06-07T11:19:06.179Z,100921.06
2019-06-07T11:21:39.578Z,100920.34
2019-06-07T11:24:14.355Z,100916.52
2019-06-07T11:26:48.113Z,100912.48
2019-06-07T11:29:23.041Z,100911.84
2019-06-07T11:31:56.475Z,100911.90
2019-06-07T11:34:29.778Z,100907.27
2019-06-07T11:37:03.815Z,100909.12
2019-06-07T11:39:37.259Z,100910.31
2019-06-07T11:42:11.962Z,100902.45
2019-06-07T11:44:56.284Z,100901.72
2019-06-07T11:47:20.679Z,100902.98
2019-06-07T11:49:54.069Z,100904.45
2019-06-07T11:52:27.931Z,100902.11
2019-06-07T11:55:01.419Z,100897.09
2019-06-07T11:57:35.928Z,100897.73
2019-06-07T12:00:13.997Z,100897.15
2019-06-07T12:02:47.932Z,100900.22
2019-06-07T12:05:21.297Z,100904.52
2019-06-07T12:07:57.091Z,100904.02
2019-06-07T12:10:41.815Z,100900.58
2019-06-07T12:13:04.794Z,100901.21
2019-06-07T12:15:38.082Z,100899.02
2019-06-07T12:18:11.315Z,100900.83
2019-06-07T12:20:44.444Z,100897.30
2019-06-07T12:23:18.096Z,100896.30
2019-06-07T12:25:51.741Z,100896.17
2019-06-07T12:28:25.022Z,100895.95
2019-06-07T12:30:59.577Z,100894.33
2019-06-07T12:33:32.759Z,100892.60
2019-06-07T12:36:06.120Z,100891.52
2019-06-07T12:38:39.429Z,100889.30
2019-06-07T12:41:12.526Z,100888.81
2019-06-07T12:43:45.749Z,100885.89
2019-06-07T12:46:22.964Z,100888.47
2019-06-07T12:48:53.849Z,100883.08
2019-06-07T12:51:26.990Z,100881.23
2019-06-07T12:54:00.165Z,100877.92
2019-06-07T12:56:33.393Z,100882.45
2019-06-07T12:59:06.559Z,100877.30
2019-06-07T13:01:39.763Z,100878.43
2019-06-07T13:04:14.354Z,100874.89
2019-06-07T13:06:47.659Z,100879.52
2019-06-07T13:09:21.873Z,100869.83
2019-06-07T13:11:55.162Z,100874.24
2019-06-07T13:14:28.564Z,100871.09
2019-06-07T13:17:01.964Z,100870.59
2019-06-07T13:19:35.146Z,100867.64
2019-06-07T13:22:08.334Z,100866.06
2019-06-07T13:24:42.159Z,100868.02
2019-06-07T13:27:16.239Z,100863.22
2019-06-07T13:29:49.764Z,100859.31
2019-06-07T13:32:23.729Z,100854.02
2019-06-07T13:34:56.951Z,100847.44
2019-06-07T13:37:30.873Z,100855.13
2019-06-07T13:40:04.205Z,100849.12
2019-06-07T13:42:37.517Z,100846.19
2019-06-07T13:45:11.265Z,100843.56
2019-06-07T13:47:44.546Z,100848.25
2019-06-07T13:50:19.493Z,100851.94
2019-06-07T13:52:52.950Z,100851.08
2019-06-07T13:55:29.342Z,100846.67
2019-06-07T13:58:03.194Z,100850.48
2019-06-07T14:00:37.069Z,100849.38
2019-06-07T14:03:11.242Z,100846.06
2019-06-07T14:05:44.651Z,100848.77
2019-06-07T14:08:19.011Z,100844.73
2019-06-07T14:10:52.334Z,100838.72
2019-06-07T14:13:25.808Z,100838.45
2019-06-07T14:15:59.065Z,100842.62
2019-06-07T14:18:32.239Z,100838.95
2019-06-07T14:21:05.578Z,100839.21
2019-06-07T14:23:48.439Z,100838.13
2019-06-07T14:26:17.187Z,100838.73
2019-06-07T14:28:50.720Z,100831.97
2019-06-07T14:31:24.601Z,100829.73
2019-06-07T14:33:58.253Z,100834.25
2019-06-07T14:36:33.162Z,100827.80
2019-06-07T14:39:07.910Z,100835.86
2019-06-07T14:41:41.090Z,100834.25
2019-06-07T14:44:14.325Z,100830.94
2019-06-07T14:46:47.532Z,100834.87
2019-06-07T14:49:21.814Z,100831.91
2019-06-07T14:51:54.985Z,100837.33
2019-06-07T14:54:33.463Z,100836.09
2019-06-07T14:57:03.799Z,100829.59
2019-06-07T14:59:37.021Z,100829.32
2019-06-07T15:02:10.227Z,100833.48
2019-06-07T15:04:44.927Z,100842.81
2019-06-07T15:07:18.196Z,100839.14
2019-06-07T15:09:51.366Z,100835.45
2019-06-07T15:12:25.842Z,100840.37
2019-06-07T15:14:59.525Z,100838.30
2019-06-07T15:17:33.419Z,100836.74
2019-06-07T15:20:08.579Z,100839.41
2019-06-07T15:22:41.827Z,100832.44
2019-06-07T15:25:16.038Z,100836.13
2019-06-07T15:27:49.898Z,100836.95
2019-06-07T15:30:27.897Z,100837.91
2019-06-07T15:33:01.764Z,100842.31
2019-06-07T15:35:37.752Z,100840.73
2019-06-07T15:38:12.008Z,100839.00
2019-06-07T15:40:46.647Z,100842.92
2019-06-07T15:43:21.006Z,100835.52
2019-06-07T15:45:56.159Z,100837.95
2019-06-07T15:48:31.900Z,100835.02
2019-06-07T15:51:08.448Z,100837.20
2019-06-07T15:53:44.708Z,100840.78
2019-06-07T15:56:18.365Z,100835.27
2019-06-07T15:58:52.737Z,100833.77
2019-06-07T16:02:11.785Z,100837.96
2019-06-07T16:28:19.783Z,100836.90
2019-06-07T16:31:25.112Z,100833.95
2019-06-07T16:34:07.128Z,100835.81
2019-06-07T16:36:46.816Z,100835.75
2019-06-07T16:39:24.274Z,100828.06
2019-06-07T16:42:01.837Z,100829.27
2019-06-07T16:45:14.982Z,100828.55
2019-06-07T16:48:54.579Z,100819.98
2019-06-07T16:51:59.493Z,100819.13
2019-06-07T16:54:37.313Z,100817.04
2019-06-07T16:57:11.862Z,100816.55
2019-06-07T16:59:55.051Z,100820.20
2019-06-07T17:07:25.724Z,100810.05
2019-06-07T17:10:00.236Z,100803.19
2019-06-07T17:12:34.263Z,100803.94
2019-06-07T17:15:10.641Z,100802.46
2019-06-07T17:17:45.329Z,100794.36
2019-06-07T17:20:19.909Z,100794.75
2019-06-07T17:22:55.253Z,100792.40
2019-06-07T17:25:29.031Z,100796.69
2019-06-07T17:28:02.709Z,100794.84
2019-06-07T17:30:36.419Z,100790.45
2019-06-07T17:33:09.960Z,100782.98
2019-06-07T17:35:44.679Z,100783.23
2019-06-07T17:38:18.325Z,100781.38
2019-06-07T17:40:51.970Z,100785.88
2019-06-07T17:43:25.683Z,100785.75
2019-06-07T17:45:59.206Z,100789.29
2019-06-07T17:48:32.880Z,100791.48
2019-06-07T18:07:25.190Z,100804.78
2019-06-07T18:10:10.866Z,100804.89
2019-06-07T18:12:48.139Z,100799.61
2019-06-07T18:15:30.553Z,100804.08
2019-06-07T18:18:16.008Z,100804.81
2019-06-07T18:20:51.493Z,100807.45
2019-06-07T18:23:26.396Z,100813.67
2019-06-07T18:29:00.787Z,100815.89
2019-06-07T18:31:38.007Z,100815.99
2019-06-07T18:34:14.707Z,100822.64
2019-06-07T18:36:50.925Z,100825.81
2019-06-07T18:39:27.178Z,100818.68
2019-06-07T18:42:05.771Z,100818.68
2019-06-07T18:44:45.173Z,100823.56
2019-06-07T18:47:26.650Z,100824.00
2019-06-07T18:50:11.138Z,100816.82
2019-06-07T18:52:46.712Z,100815.58
2019-06-07T18:55:22.765Z,100814.83
2019-06-07T18:57:56.615Z,100819.94
2019-06-07T19:00:32.143Z,100814.24
2019-06-07T19:03:06.697Z,100814.47
2019-06-07T19:05:40.204Z,100824.47
2019-06-07T19:08:13.826Z,100824.17
2019-06-07T19:10:48.682Z,100824.17
2019-06-07T19:13:22.447Z,100828.49
2019-06-07T19:15:56.075Z,100826.69
2019-06-07T19:18:29.640Z,100831.89
2019-06-07T19:21:03.119Z,100835.83
2019-06-07T19:23:36.692Z,100838.56
2019-06-07T19:26:10.252Z,100849.17
2019-06-07T19:28:43.890Z,100852.53
2019-06-07T19:31:18.740Z,100860.91
2019-06-07T19:33:53.121Z,100863.55
2019-06-07T19:36:26.641Z,100863.86
2019-06-07T19:39:02.727Z,100870.00
2019-06-07T19:41:36.692Z,100875.31
2019-06-07T19:44:09.950Z,100875.05
2019-06-07T19:46:43.317Z,100874.87
2019-06-07T19:49:16.653Z,100882.95
2019-06-07T19:51:50.968Z,100884.48
2019-06-07T19:54:24.298Z,100885.41
2019-06-07T19:56:57.701Z,100879.09
2019-06-07T19:59:31.101Z,100881.87
2019-06-07T20:02:04.416Z,100874.98
2019-06-07T20:04:37.799Z,100876.26
2019-06-07T20:07:11.164Z,100870.71
2019-06-07T20:09:44.742Z,100872.27
2019-06-07T20:12:18.592Z,100867.20
2019-06-07T20:14:54.002Z,100868.72
2019-06-07T20:17:27.304Z,100870.76
2019-06-07T20:20:00.892Z,100869.51
2019-06-07T20:22:34.395Z,100870.17
2019-06-07T20:25:09.241Z,100867.04
2019-06-07T20:27:43.048Z,100870.58
2019-06-07T20:30:17.225Z,100870.30
2019-06-07T20:32:50.819Z,100868.84
2019-06-07T20:35:24.491Z,100878.91
2019-06-07T20:37:59.032Z,100877.48
2019-06-07T20:40:32.886Z,100877.50
2019-06-07T20:43:08.123Z,100882.98
2019-06-07T20:45:42.070Z,100879.83
2019-06-07T20:48:15.737Z,100878.66
2019-06-07T20:50:49.240Z,100871.46
2019-06-07T20:53:22.749Z,100867.94
2019-06-07T20:55:56.849Z,100873.30
2019-06-07T20:58:30.395Z,100865.34
2019-06-07T21:01:06.936Z,100865.14
2019-06-07T21:03:40.531Z,100868.11
2019-06-07T21:06:14.141Z,100863.44
2019-06-07T21:08:48.830Z,100864.21
2019-06-07T21:11:22.255Z,100857.52
2019-06-07T21:13:55.804Z,100855.30
2019-06-07T21:16:29.462Z,100852.05
2019-06-07T21:19:04.136Z,100848.40
2019-06-07T21:21:37.717Z,100845.83
2019-06-07T21:24:11.263Z,100846.69
2019-06-07T21:26:44.725Z,100842.67
2019-06-07T21:29:18.306Z,100844.58
2019-06-07T21:31:51.928Z,100844.01
2019-06-07T21:34:25.487Z,100843.23
2019-06-07T21:36:59.045Z,100840.64
2019-06-07T21:39:32.602Z,100835.28
2019-06-07T21:42:06.196Z,100836.95
2019-06-07T21:44:39.948Z,100835.03
2019-06-07T21:47:13.473Z,100833.98
2019-06-07T21:49:47.043Z,100831.35
2019-06-07T21:52:20.529Z,100833.81
2019-06-07T21:54:55.436Z,100835.08
2019-06-07T21:57:28.937Z,100837.88
2019-06-07T22:00:03.379Z,100836.54
2019-06-07T22:02:38.545Z,100830.84
2019-06-07T22:05:12.321Z,100823.23
2019-06-07T22:07:46.171Z,100819.30
2019-06-07T22:10:19.844Z,100821.49
2019-06-07T22:12:53.356Z,100814.50
2019-06-07T22:15:34.167Z,100815.54
2019-06-07T22:18:02.218Z,100817.66
2019-06-07T22:20:35.814Z,100827.86
2019-06-07T22:23:09.259Z,100818.78
2019-06-07T22:25:42.727Z,100822.69
2019-06-07T22:28:16.240Z,100819.59
2019-06-07T22:30:50.227Z,100820.14
2019-06-07T22:33:23.576Z,100815.02
2019-06-07T22:36:08.905Z,100815.02
2019-06-07T22:38:42.463Z,100814.29
2019-06-07T22:41:16.019Z,100816.08
2019-06-07T22:43:59.646Z,100814.74
2019-06-07T22:46:53.256Z,100820.01
2019-06-07T22:49:34.486Z,100811.59
2019-06-07T22:52:11.996Z,100813.00
2019-06-07T22:54:44.815Z,100816.72
2019-06-07T22:57:32.292Z,100820.46
2019-06-07T23:00:14.296Z,100817.49
2019-06-07T23:18:05.707Z,100803.41
2019-06-07T23:20:39.567Z,100785.08
2019-06-07T23:23:13.526Z,100802.89
2019-06-07T23:25:48.103Z,100803.73
2019-06-07T23:28:23.070Z,100790.69
2019-06-07T23:30:58.134Z,100796.58
2019-06-07T23:33:33.526Z,100804.03
2019-06-07T23:36:10.990Z,100803.66
2019-06-07T23:38:46.927Z,100813.72
2019-06-07T23:41:22.314Z,100811.30
2019-06-07T23:43:57.364Z,100803.40
2019-06-07T23:46:32.531Z,100808.33
2019-06-07T23:49:06.914Z,100813.25
2019-06-07T23:51:41.302Z,100812.92
2019-06-07T23:54:15.690Z,100819.15
2019-06-07T23:56:49.997Z,100824.74
2019-06-07T23:59:25.037Z,100823.95
